createdAt,value
2022-09-05T00:00:27.219Z,15.41
2022-09-05T00:03:34.435Z,15.38
2022-09-05T00:06:23.239Z,15.39
2022-09-05T00:09:27.764Z,15.41
2022-09-05T00:12:12.044Z,15.36
2022-09-05T00:15:18.679Z,15.36
2022-09-05T00:23:58.745Z,15.39
2022-09-05T00:24:25.896Z,15.37
2022-09-05T00:25:30.577Z,15.37
2022-09-05T00:28:50.191Z,15.40
2022-09-05T00:32:01.315Z,15.43
2022-09-05T00:35:02.265Z,15.45
2022-09-05T00:37:56.284Z,15.47
2022-09-05T00:40:44.387Z,15.46
2022-09-05T00:43:38.269Z,15.51
2022-09-05T00:46:24.549Z,15.52
2022-09-05T00:49:23.149Z,15.51
2022-09-05T00:52:43.161Z,15.53
2022-09-05T00:56:06.169Z,15.53
2022-09-05T00:59:05.292Z,15.51
2022-09-05T01:02:06.266Z,15.51
2022-09-05T01:05:11.264Z,15.45
2022-09-05T01:08:20.110Z,15.44
2022-09-05T01:11:13.175Z,15.41
2022-09-05T01:14:14.119Z,15.41
2022-09-05T01:17:20.113Z,15.40
2022-09-05T01:20:19.911Z,15.35
2022-09-05T01:23:33.157Z,15.36
2022-09-05T01:26:59.102Z,15.36
2022-09-05T01:30:01.221Z,15.33
2022-09-05T01:32:48.102Z,15.31
2022-09-05T01:35:35.235Z,15.38
2022-09-05T01:38:37.105Z,15.37
2022-09-05T01:41:28.538Z,15.34
2022-09-05T01:44:54.085Z,15.34
2022-09-05T01:48:11.095Z,15.36
2022-09-05T01:51:03.818Z,15.39
2022-09-05T01:54:41.094Z,15.39
2022-09-05T01:57:56.079Z,15.39
2022-09-05T02:00:43.165Z,15.41
2022-09-05T02:03:51.098Z,15.44
2022-09-05T02:06:56.794Z,15.42
2022-09-05T02:10:37.100Z,15.42
2022-09-05T02:13:34.044Z,15.35
2022-09-05T02:16:44.013Z,15.40
2022-09-05T02:19:39.054Z,15.34
2022-09-05T02:22:41.757Z,15.35
2022-09-05T02:26:01.185Z,15.34
2022-09-05T02:29:03.030Z,15.30
2022-09-05T02:31:46.215Z,15.24
2022-09-05T02:34:52.216Z,15.23
2022-09-05T02:38:15.608Z,15.21
2022-09-05T02:45:05.998Z,15.14
2022-09-05T02:45:25.803Z,15.16
2022-09-05T02:48:15.952Z,15.10
2022-09-05T02:57:24.397Z,15.12
2022-09-05T02:57:37.962Z,15.14
2022-09-05T02:58:06.356Z,15.09
2022-09-05T03:01:16.108Z,15.07
2022-09-05T03:04:09.119Z,15.03
2022-09-05T03:26:18.950Z,14.56
2022-09-05T03:29:16.963Z,14.69
2022-09-05T03:32:12.943Z,14.80
2022-09-05T03:35:08.243Z,14.86
2022-09-05T03:38:40.974Z,14.93
2022-09-05T03:41:45.913Z,15.03
2022-09-05T03:45:03.929Z,15.04
2022-09-05T03:47:53.966Z,15.05
2022-09-05T03:57:04.295Z,15.11
2022-09-05T03:57:18.763Z,15.10
2022-09-05T03:58:18.216Z,15.13
2022-09-05T04:03:23.613Z,15.11
2022-09-05T04:08:11.269Z,15.18
2022-09-05T04:08:14.410Z,15.22
2022-09-05T04:11:01.136Z,15.26
2022-09-05T04:14:14.930Z,15.34
2022-09-05T04:17:20.898Z,15.44
2022-09-05T04:20:45.494Z,15.53
2022-09-05T04:23:38.905Z,15.68
2022-09-05T04:26:46.918Z,15.94
2022-09-05T04:29:45.889Z,16.17
2022-09-05T04:32:56.872Z,16.26
2022-09-05T04:35:42.986Z,16.41
2022-09-05T04:38:54.882Z,16.61
2022-09-05T04:41:43.329Z,16.84
2022-09-05T04:44:33.833Z,16.94
2022-09-05T04:47:23.789Z,17.22
2022-09-05T04:50:37.746Z,17.88
2022-09-05T04:53:57.429Z,18.26
2022-09-05T04:56:57.864Z,18.97
2022-09-05T05:05:58.590Z,19.20
2022-09-05T05:06:19.101Z,19.27
2022-09-05T05:06:42.316Z,20.11
2022-09-05T05:09:19.806Z,20.32
2022-09-05T05:18:01.024Z,20.44
2022-09-05T05:18:10.551Z,20.51
2022-09-05T05:18:59.945Z,20.73
2022-09-05T05:21:43.933Z,20.69
2022-09-05T05:24:39.802Z,21.19
2022-09-05T05:27:23.022Z,21.27
2022-09-05T05:30:10.826Z,21.41
2022-09-05T05:32:55.962Z,21.61
2022-09-05T05:35:48.580Z,21.97
2022-09-05T05:38:47.838Z,22.13
2022-09-05T05:41:37.786Z,22.37
2022-09-05T05:44:32.809Z,23.07
2022-09-05T05:47:32.950Z,23.63
2022-09-05T05:50:28.806Z,23.45
2022-09-05T05:53:43.093Z,23.75
2022-09-05T05:56:36.149Z,24.03
2022-09-05T05:59:56.380Z,24.12
2022-09-05T06:03:25.632Z,24.38
2022-09-05T06:06:19.697Z,24.83
2022-09-05T06:14:49.582Z,25.49
2022-09-05T06:14:55.644Z,26.79
2022-09-05T06:16:42.776Z,27.32
2022-09-05T06:19:58.315Z,26.73
2022-09-05T06:23:01.751Z,27.01
2022-09-05T06:26:36.762Z,26.21
2022-09-05T06:29:38.374Z,25.22
2022-09-05T06:32:37.740Z,24.50
2022-09-05T06:35:46.763Z,24.04
2022-09-05T06:38:56.752Z,24.07
2022-09-05T06:41:59.772Z,23.87
2022-09-05T06:44:54.810Z,23.65
2022-09-05T06:47:39.196Z,23.30
2022-09-05T06:50:53.224Z,23.54
2022-09-05T06:53:54.811Z,23.81
2022-09-05T06:56:37.707Z,23.56
2022-09-05T06:59:35.786Z,23.24
2022-09-05T07:02:59.617Z,23.36
2022-09-05T07:06:09.732Z,22.89
2022-09-05T07:09:05.806Z,23.12
2022-09-05T07:12:06.701Z,22.85
2022-09-05T07:15:20.719Z,22.70
2022-09-05T07:18:10.874Z,22.29
2022-09-05T07:21:15.955Z,22.34
2022-09-05T07:24:11.149Z,22.40
2022-09-05T07:27:00.690Z,22.85
2022-09-05T07:30:01.201Z,24.34
2022-09-05T07:32:51.685Z,24.48
2022-09-05T07:35:41.437Z,23.64
2022-09-05T07:38:45.542Z,22.79
2022-09-05T07:41:42.751Z,23.13
2022-09-05T07:44:39.649Z,23.68
2022-09-05T07:47:37.662Z,24.06
2022-09-05T07:54:11.748Z,24.15
2022-09-05T07:56:58.766Z,23.84
2022-09-05T07:57:22.452Z,23.54
2022-09-05T07:59:53.766Z,23.26
2022-09-05T08:02:45.445Z,23.00
2022-09-05T08:05:34.961Z,22.98
2022-09-05T08:08:55.970Z,23.24
2022-09-05T08:11:48.255Z,22.95
2022-09-05T08:14:49.666Z,22.75
2022-09-05T08:17:38.659Z,23.00
2022-09-05T08:20:47.733Z,23.30
2022-09-05T08:23:52.748Z,23.30
2022-09-05T08:26:50.809Z,23.56
2022-09-05T08:29:38.642Z,23.62
2022-09-05T08:32:35.269Z,28.03
2022-09-05T08:35:27.598Z,31.42
2022-09-05T08:38:09.015Z,29.12
2022-09-05T08:41:00.638Z,27.04
2022-09-05T08:46:36.320Z,25.86
2022-09-05T08:47:25.680Z,24.85
2022-09-05T08:50:39.767Z,24.09
2022-09-05T08:53:56.742Z,23.62
2022-09-05T08:57:15.562Z,23.35
2022-09-05T09:00:20.735Z,23.38
2022-09-05T09:03:52.713Z,24.72
2022-09-05T09:07:17.512Z,30.21
2022-09-05T09:10:25.586Z,32.79
2022-09-05T09:13:23.781Z,29.43
2022-09-05T09:16:37.582Z,27.44
2022-09-05T09:19:38.594Z,28.72
2022-09-05T09:22:30.580Z,27.39
2022-09-05T09:25:33.951Z,27.22
2022-09-05T09:28:47.597Z,26.12
2022-09-05T09:31:52.643Z,25.08
2022-09-05T09:34:47.436Z,24.22
2022-09-05T09:37:51.734Z,23.77
2022-09-05T09:41:02.678Z,24.00
2022-09-05T09:44:06.725Z,25.06
2022-09-05T09:46:56.604Z,25.91
2022-09-05T09:49:39.725Z,26.90
2022-09-05T09:52:41.573Z,26.24
2022-09-05T09:55:41.089Z,25.89
2022-09-05T09:58:58.602Z,26.21
2022-09-05T10:05:28.838Z,25.18
2022-09-05T10:10:38.186Z,23.65
2022-09-05T10:10:49.219Z,22.78
2022-09-05T10:13:08.731Z,22.45
2022-09-05T10:16:14.617Z,22.30
2022-09-05T10:20:07.451Z,23.43
2022-09-05T10:22:42.621Z,26.92
2022-09-05T10:25:41.493Z,28.22
2022-09-05T10:29:30.176Z,26.07
2022-09-05T10:35:17.244Z,24.19
2022-09-05T10:35:29.848Z,23.74
2022-09-05T10:38:21.533Z,23.28
2022-09-05T10:41:22.369Z,23.56
2022-09-05T10:44:12.507Z,22.81
2022-09-05T10:47:04.719Z,22.28
2022-09-05T10:49:56.455Z,21.73
2022-09-05T10:53:09.507Z,21.71
2022-09-05T10:56:18.451Z,22.22
2022-09-05T11:02:16.616Z,24.16
2022-09-05T11:02:34.703Z,23.30
2022-09-05T11:05:33.522Z,22.63
2022-09-05T11:08:46.459Z,22.22
2022-09-05T11:11:34.801Z,21.76
2022-09-05T11:14:49.438Z,21.29
2022-09-05T11:17:42.496Z,21.42
2022-09-05T11:20:40.871Z,21.23
2022-09-05T11:23:31.540Z,21.19
2022-09-05T11:26:22.581Z,21.42
2022-09-05T11:29:18.422Z,21.64
2022-09-05T11:34:28.434Z,21.97
2022-09-05T11:39:46.815Z,22.41
2022-09-05T11:40:07.347Z,22.89
2022-09-05T11:43:10.478Z,22.98
2022-09-05T11:46:22.468Z,22.88
2022-09-05T11:49:39.402Z,22.42
2022-09-05T11:52:35.412Z,22.20
2022-09-05T11:56:15.450Z,21.67
2022-09-05T11:59:32.779Z,21.29
2022-09-05T12:02:57.485Z,20.98
2022-09-05T12:06:06.297Z,20.91
2022-09-05T12:09:08.605Z,20.83
2022-09-05T12:12:39.417Z,20.78
2022-09-05T12:15:34.488Z,20.87
2022-09-05T12:18:28.437Z,21.02
2022-09-05T12:21:38.862Z,21.00
2022-09-05T12:25:26.166Z,21.06
2022-09-05T12:27:46.441Z,20.97
2022-09-05T12:30:36.427Z,21.01
2022-09-05T12:36:06.728Z,21.00
2022-09-05T12:39:29.037Z,20.90
2022-09-05T12:41:36.422Z,21.05
2022-09-05T12:44:29.920Z,21.14
2022-09-05T12:46:26.291Z,21.24
2022-09-05T12:49:21.357Z,21.29
2022-09-05T12:52:30.351Z,21.09
2022-09-05T12:55:34.390Z,20.95
2022-09-05T13:02:59.211Z,21.25
2022-09-05T13:03:12.276Z,21.74
2022-09-05T13:05:11.689Z,21.54
2022-09-05T13:08:05.337Z,21.48
2022-09-05T13:14:50.287Z,21.55
2022-09-05T13:15:01.895Z,21.55
2022-09-05T13:17:44.427Z,22.05
2022-09-05T13:20:40.332Z,22.33
2022-09-05T13:23:48.675Z,22.42
2022-09-05T13:26:46.315Z,22.46
2022-09-05T13:29:30.467Z,22.46
2022-09-05T13:38:13.077Z,21.94
2022-09-05T13:38:20.340Z,22.02
2022-09-05T13:39:27.378Z,22.00
2022-09-05T13:42:12.042Z,21.71
2022-09-05T13:45:02.261Z,21.96
2022-09-05T13:47:55.466Z,22.04
2022-09-05T13:50:40.389Z,21.68
2022-09-05T13:53:37.054Z,21.56
2022-09-05T13:56:42.291Z,21.35
2022-09-05T13:59:27.488Z,21.34
2022-09-05T14:05:55.376Z,21.59
2022-09-05T14:09:35.747Z,21.76
2022-09-05T14:12:47.393Z,21.74
2022-09-05T14:15:40.293Z,21.55
2022-09-05T14:19:00.280Z,21.41
2022-09-05T14:21:52.230Z,21.22
2022-09-05T14:24:58.365Z,21.32
2022-09-05T14:27:45.277Z,21.21
2022-09-05T14:35:00.709Z,21.11
2022-09-05T14:37:46.828Z,21.01
2022-09-05T14:38:27.505Z,21.02
2022-09-05T14:41:23.397Z,21.14
2022-09-05T14:44:19.216Z,21.28
2022-09-05T14:47:36.421Z,21.24
2022-09-05T14:50:50.241Z,21.26
2022-09-05T14:57:23.547Z,21.22
2022-09-05T15:02:46.197Z,21.26
2022-09-05T15:03:02.194Z,21.13
2022-09-05T15:05:57.237Z,21.00
2022-09-05T15:11:24.446Z,20.91
2022-09-05T15:27:56.572Z,19.69
2022-09-05T15:30:36.836Z,19.80
2022-09-05T15:33:27.618Z,19.79
2022-09-05T15:36:13.788Z,19.87
2022-09-05T15:39:08.647Z,19.89
2022-09-05T15:42:27.554Z,19.91
2022-09-05T15:45:17.598Z,19.91
2022-09-05T15:48:18.857Z,19.87
2022-09-05T15:51:09.559Z,19.87
2022-09-05T15:53:58.554Z,19.80
2022-09-05T15:56:38.752Z,19.73
2022-09-05T15:59:30.570Z,19.68
2022-09-05T16:02:20.765Z,19.72
2022-09-05T16:10:26.968Z,19.69
2022-09-05T16:10:39.496Z,19.67
2022-09-05T16:15:50.033Z,19.59
2022-09-05T16:23:18.906Z,19.50
2022-09-05T16:23:34.529Z,19.41
2022-09-05T16:24:58.262Z,19.41
2022-09-05T16:27:54.490Z,19.32
2022-09-05T16:30:46.646Z,19.28
2022-09-05T16:33:34.476Z,19.23
2022-09-05T16:36:21.172Z,19.18
2022-09-05T16:39:13.522Z,19.21
2022-09-05T16:41:56.539Z,19.12
2022-09-05T16:44:55.535Z,19.09
2022-09-05T16:47:49.530Z,18.98
2022-09-05T16:50:47.983Z,18.91
2022-09-05T16:53:46.177Z,18.87
2022-09-05T16:57:00.514Z,18.79
2022-09-05T16:59:50.797Z,18.78
2022-09-05T17:02:58.664Z,18.74
2022-09-05T17:05:52.470Z,18.80
2022-09-05T17:08:42.490Z,18.74
2022-09-05T17:11:29.500Z,18.65
2022-09-05T17:14:22.501Z,18.64
2022-09-05T17:17:37.519Z,18.56
2022-09-05T17:20:24.492Z,18.52
2022-09-05T17:29:19.904Z,18.48
2022-09-05T17:29:28.161Z,18.48
2022-09-05T17:33:45.066Z,18.23
2022-09-05T17:36:51.546Z,18.23
2022-09-05T17:39:44.968Z,18.18
2022-09-05T17:42:41.458Z,18.21
2022-09-05T17:45:32.452Z,18.21
2022-09-05T17:48:12.577Z,18.20
2022-09-05T17:51:00.445Z,18.13
2022-09-05T17:54:14.463Z,18.15
2022-09-05T17:57:01.442Z,18.05
2022-09-05T17:59:41.561Z,18.00
2022-09-05T18:02:28.475Z,17.98
2022-09-05T18:05:09.664Z,17.97
2022-09-05T18:07:56.659Z,17.90
2022-09-05T18:11:14.366Z,17.84
2022-09-05T18:14:29.729Z,17.83
2022-09-05T18:17:59.428Z,17.79
2022-09-05T18:21:21.166Z,17.70
2022-09-05T18:24:19.360Z,17.68
2022-09-05T18:27:43.788Z,17.62
2022-09-05T18:30:27.397Z,17.62
2022-09-05T18:33:55.376Z,17.52
2022-09-05T18:36:34.392Z,17.47
2022-09-05T18:39:36.951Z,17.47
2022-09-05T18:42:33.567Z,17.45
2022-09-05T18:45:28.666Z,17.43
2022-09-05T18:48:15.592Z,17.38
2022-09-05T18:51:15.116Z,17.39
2022-09-05T18:54:03.386Z,17.40
2022-09-05T18:57:26.309Z,17.44
2022-09-05T19:00:12.362Z,17.35
2022-09-05T19:03:03.559Z,17.19
2022-09-05T19:06:35.076Z,17.25
2022-09-05T19:09:08.569Z,17.14
2022-09-05T19:12:33.933Z,17.01
2022-09-05T19:15:25.543Z,16.94
2022-09-05T19:18:26.984Z,16.86
2022-09-05T19:21:11.789Z,16.79
2022-09-05T19:24:09.543Z,16.80
2022-09-05T19:28:13.946Z,16.75
2022-09-05T19:36:44.810Z,16.77
2022-09-05T19:37:03.786Z,16.66
2022-09-05T19:37:12.358Z,16.69
2022-09-05T19:44:37.611Z,16.66
2022-09-05T19:47:30.926Z,16.67
2022-09-05T19:47:35.038Z,16.72
2022-09-05T19:49:07.763Z,16.74
2022-09-05T19:51:48.524Z,16.85
2022-09-05T19:54:30.706Z,16.95
2022-09-05T19:57:27.412Z,17.06
2022-09-05T20:00:08.810Z,17.14
2022-09-05T20:02:55.296Z,17.12
2022-09-05T20:05:47.531Z,17.11
2022-09-05T20:08:39.596Z,17.07
2022-09-05T20:11:36.034Z,16.95
2022-09-05T20:14:43.342Z,16.99
2022-09-05T20:17:28.552Z,17.03
2022-09-05T20:20:29.317Z,16.93
2022-09-05T20:23:10.171Z,16.96
2022-09-05T20:26:01.463Z,16.92
2022-09-05T20:28:53.997Z,16.87
2022-09-05T20:31:44.472Z,16.76
2022-09-05T20:36:31.319Z,16.65
2022-09-05T20:43:23.232Z,16.62
2022-09-05T20:43:29.306Z,16.51
2022-09-05T20:43:59.308Z,16.53
2022-09-05T20:49:04.459Z,16.50
2022-09-05T20:54:10.689Z,16.42
2022-09-05T20:54:17.181Z,16.43
2022-09-05T20:56:16.317Z,16.36
2022-09-05T20:58:58.684Z,16.38
2022-09-05T21:01:49.372Z,16.41
2022-09-05T21:04:54.205Z,16.28
2022-09-05T21:07:44.209Z,16.33
2022-09-05T21:10:26.358Z,16.32
2022-09-05T21:13:13.178Z,16.32
2022-09-05T21:16:00.345Z,16.40
2022-09-05T21:18:49.267Z,16.41
2022-09-05T21:21:38.209Z,16.43
2022-09-05T21:24:31.203Z,16.49
2022-09-05T21:27:36.193Z,16.40
2022-09-05T21:30:40.901Z,16.47
2022-09-05T21:33:33.757Z,16.50
2022-09-05T21:36:20.613Z,16.55
2022-09-05T21:39:07.187Z,16.47
2022-09-05T21:41:59.419Z,16.44
2022-09-05T21:47:37.888Z,16.40
2022-09-05T21:47:59.939Z,16.36
2022-09-05T21:50:53.152Z,16.34
2022-09-05T21:55:02.783Z,16.32
2022-09-05T21:59:29.145Z,16.32
2022-09-05T22:00:10.573Z,16.29
2022-09-05T22:02:53.436Z,16.20
2022-09-05T22:05:41.150Z,16.19
2022-09-05T22:08:22.577Z,16.14
2022-09-05T22:11:09.152Z,16.11
2022-09-05T22:13:59.092Z,16.06
2022-09-05T22:16:46.148Z,16.02
2022-09-05T22:19:37.693Z,16.02
2022-09-05T22:22:28.130Z,15.97
2022-09-05T22:25:30.537Z,15.90
2022-09-05T22:28:31.850Z,15.84
2022-09-05T22:31:22.051Z,15.84
2022-09-05T22:34:09.138Z,15.84
2022-09-05T22:36:50.953Z,15.81
2022-09-05T22:39:38.296Z,15.78
2022-09-05T22:42:18.558Z,15.69
2022-09-05T22:45:05.092Z,15.72
2022-09-05T22:47:45.462Z,15.62
2022-09-05T22:50:32.102Z,15.72
2022-09-05T22:53:12.603Z,15.66
2022-09-05T22:55:59.090Z,15.63
2022-09-05T22:58:44.808Z,15.63
2022-09-05T23:01:32.147Z,15.65
2022-09-05T23:04:19.268Z,15.62
2022-09-05T23:06:59.082Z,15.60
2022-09-05T23:09:46.089Z,15.63
2022-09-05T23:12:26.187Z,15.62
2022-09-05T23:15:13.075Z,15.66
2022-09-05T23:18:07.045Z,15.63
2022-09-05T23:20:54.090Z,15.55
2022-09-05T23:23:34.179Z,15.57
2022-09-05T23:26:22.085Z,15.57
2022-09-05T23:29:02.162Z,15.52
2022-09-05T23:31:49.051Z,15.55
2022-09-05T23:34:29.209Z,15.55
2022-09-05T23:37:16.058Z,15.46
2022-09-05T23:39:56.192Z,15.39
2022-09-05T23:42:43.020Z,15.42
2022-09-05T23:45:30.036Z,15.41
2022-09-05T23:48:17.147Z,15.43
2022-09-05T23:50:57.059Z,15.40
2022-09-05T23:53:37.829Z,15.38
2022-09-05T23:56:25.026Z,15.42
2022-09-05T23:59:12.037Z,15.42
